createdAt,value
2023-08-07T00:00:33.606Z,14.73
2023-08-07T00:03:01.497Z,14.68
2023-08-07T00:05:29.376Z,14.67
2023-08-07T00:07:57.055Z,14.75
2023-08-07T00:10:25.612Z,14.75
2023-08-07T00:12:53.208Z,14.67
2023-08-07T00:15:21.151Z,14.64
2023-08-07T00:17:49.046Z,14.71
2023-08-07T00:20:16.599Z,14.70
2023-08-07T00:22:44.147Z,14.74
2023-08-07T00:25:12.021Z,14.78
2023-08-07T00:27:39.496Z,14.75
2023-08-07T00:30:07.627Z,14.84
2023-08-07T00:32:35.493Z,14.84
2023-08-07T00:35:03.046Z,14.80
2023-08-07T00:37:30.553Z,14.86
2023-08-07T00:39:58.431Z,14.90
2023-08-07T00:42:25.987Z,14.88
2023-08-07T00:44:53.799Z,14.84
2023-08-07T00:47:22.060Z,14.80
2023-08-07T00:49:49.782Z,14.81
2023-08-07T00:52:20.147Z,14.87
2023-08-07T00:54:48.563Z,14.87
2023-08-07T00:57:18.015Z,14.84
2023-08-07T00:59:45.848Z,14.86
2023-08-07T01:02:14.883Z,14.89
2023-08-07T01:04:42.465Z,14.90
2023-08-07T01:07:10.244Z,14.86
2023-08-07T01:09:38.295Z,14.83
2023-08-07T01:12:17.559Z,14.83
2023-08-07T01:15:06.375Z,14.90
2023-08-07T01:17:35.860Z,14.91
2023-08-07T01:20:05.327Z,14.91
2023-08-07T01:22:32.925Z,14.90
2023-08-07T01:25:00.943Z,14.96
2023-08-07T01:27:45.226Z,14.93
2023-08-07T01:30:30.270Z,14.94
2023-08-07T01:33:09.710Z,14.97
2023-08-07T01:35:44.450Z,15.00
2023-08-07T01:38:14.068Z,15.01
2023-08-07T01:40:43.195Z,15.02
2023-08-07T01:43:10.854Z,15.01
2023-08-07T01:45:38.810Z,14.97
2023-08-07T01:48:06.432Z,15.00
2023-08-07T01:50:34.325Z,14.93
2023-08-07T01:53:03.672Z,14.95
2023-08-07T01:55:31.679Z,14.96
2023-08-07T01:57:59.428Z,14.96
2023-08-07T02:00:27.355Z,14.92
2023-08-07T02:02:54.934Z,14.92
2023-08-07T02:05:22.893Z,14.96
2023-08-07T02:07:50.541Z,14.98
2023-08-07T02:10:18.204Z,15.01
2023-08-07T02:12:46.131Z,14.96
2023-08-07T02:15:14.568Z,14.96
2023-08-07T02:17:42.775Z,14.90
2023-08-07T02:20:11.436Z,14.91
2023-08-07T02:22:39.037Z,14.83
2023-08-07T02:25:07.116Z,14.79
2023-08-07T02:27:34.955Z,14.76
2023-08-07T02:30:04.771Z,14.75
2023-08-07T02:32:32.481Z,14.69
2023-08-07T02:35:00.412Z,14.68
2023-08-07T02:37:28.067Z,14.64
2023-08-07T02:39:55.963Z,14.61
2023-08-07T02:42:23.778Z,14.54
2023-08-07T02:44:51.374Z,14.51
2023-08-07T02:47:19.413Z,14.48
2023-08-07T02:49:47.258Z,14.41
2023-08-07T02:52:14.842Z,14.35
2023-08-07T02:54:42.425Z,14.28
2023-08-07T02:57:10.353Z,14.19
2023-08-07T02:59:37.924Z,14.21
2023-08-07T03:02:05.866Z,14.14
2023-08-07T03:04:33.761Z,14.11
2023-08-07T03:07:01.796Z,14.12
2023-08-07T03:09:29.384Z,14.00
2023-08-07T03:11:57.203Z,13.94
2023-08-07T03:14:24.837Z,13.92
2023-08-07T03:16:52.525Z,13.92
2023-08-07T03:19:22.679Z,13.89
2023-08-07T03:21:50.687Z,13.93
2023-08-07T03:24:18.254Z,13.94
2023-08-07T03:26:48.516Z,13.94
2023-08-07T03:29:16.467Z,13.94
2023-08-07T03:31:44.416Z,13.97
2023-08-07T03:34:12.651Z,14.00
2023-08-07T03:36:40.238Z,14.01
2023-08-07T03:39:07.889Z,14.00
2023-08-07T03:41:35.766Z,14.05
2023-08-07T03:44:03.467Z,14.06
2023-08-07T03:46:31.156Z,14.07
2023-08-07T03:48:58.989Z,14.04
2023-08-07T03:51:27.213Z,14.07
2023-08-07T03:53:55.172Z,14.02
2023-08-07T03:56:23.140Z,14.01
2023-08-07T03:58:51.360Z,14.09
2023-08-07T04:01:19.594Z,14.00
2023-08-07T04:03:50.674Z,14.04
2023-08-07T04:06:18.395Z,13.99
2023-08-07T04:08:49.293Z,14.01
2023-08-07T04:11:17.284Z,13.99
2023-08-07T04:13:44.890Z,13.92
2023-08-07T04:16:12.500Z,13.91
2023-08-07T04:18:40.318Z,13.96
2023-08-07T04:21:08.042Z,14.02
2023-08-07T04:23:35.588Z,14.02
2023-08-07T04:26:03.613Z,13.98
2023-08-07T04:28:31.442Z,13.98
2023-08-07T04:30:59.092Z,13.98
2023-08-07T04:33:27.076Z,14.00
2023-08-07T04:35:54.651Z,13.99
2023-08-07T04:38:22.270Z,14.05
2023-08-07T04:40:51.250Z,14.02
2023-08-07T04:43:22.986Z,14.08
2023-08-07T04:45:50.896Z,14.14
2023-08-07T04:48:19.437Z,14.20
2023-08-07T04:50:47.131Z,14.25
2023-08-07T04:53:15.030Z,14.38
2023-08-07T04:55:42.621Z,14.44
2023-08-07T04:58:10.114Z,14.56
2023-08-07T05:00:37.956Z,14.63
2023-08-07T05:03:05.790Z,14.71
2023-08-07T05:05:33.426Z,14.76
2023-08-07T05:08:01.594Z,14.83
2023-08-07T05:10:29.192Z,14.93
2023-08-07T05:12:57.168Z,14.98
2023-08-07T05:15:25.673Z,15.03
2023-08-07T05:17:53.735Z,15.08
2023-08-07T05:20:21.379Z,15.15
2023-08-07T05:22:49.376Z,15.21
2023-08-07T05:25:18.173Z,15.28
2023-08-07T05:27:46.415Z,15.38
2023-08-07T05:30:14.785Z,15.48
2023-08-07T05:32:42.542Z,15.53
2023-08-07T05:35:10.226Z,15.63
2023-08-07T05:37:38.152Z,15.70
2023-08-07T05:40:06.488Z,15.71
2023-08-07T05:42:35.555Z,15.78
2023-08-07T05:45:04.044Z,15.84
2023-08-07T05:47:31.605Z,15.90
2023-08-07T05:49:59.233Z,15.93
2023-08-07T05:52:27.118Z,15.99
2023-08-07T05:54:55.134Z,16.08
2023-08-07T05:57:22.687Z,16.16
2023-08-07T05:59:50.568Z,16.26
2023-08-07T06:02:18.328Z,16.36
2023-08-07T06:04:46.442Z,16.44
2023-08-07T06:07:14.003Z,16.53
2023-08-07T06:09:41.624Z,16.63
2023-08-07T06:12:09.694Z,16.78
2023-08-07T06:14:38.447Z,16.98
2023-08-07T06:17:06.827Z,17.10
2023-08-07T06:19:34.664Z,17.21
2023-08-07T06:22:02.368Z,17.36
2023-08-07T06:24:30.192Z,17.46
2023-08-07T06:26:58.074Z,17.73
2023-08-07T06:29:25.613Z,17.98
2023-08-07T06:31:53.248Z,18.23
2023-08-07T06:34:21.207Z,18.47
2023-08-07T06:36:48.787Z,18.66
2023-08-07T06:39:16.402Z,18.98
2023-08-07T06:41:44.281Z,19.21
2023-08-07T06:44:12.621Z,19.55
2023-08-07T06:46:40.122Z,19.52
2023-08-07T06:49:08.224Z,19.58
2023-08-07T06:51:35.873Z,19.64
2023-08-07T06:54:03.428Z,19.97
2023-08-07T06:56:31.362Z,20.25
2023-08-07T06:58:59.651Z,20.17
2023-08-07T07:01:27.305Z,20.30
2023-08-07T07:03:55.275Z,20.33
2023-08-07T07:06:24.569Z,20.47
2023-08-07T07:08:55.227Z,20.33
2023-08-07T07:11:25.558Z,20.52
2023-08-07T07:13:53.599Z,20.43
2023-08-07T07:16:24.964Z,20.31
2023-08-07T07:18:53.003Z,20.21
2023-08-07T07:21:21.514Z,20.14
2023-08-07T07:23:49.075Z,20.08
2023-08-07T07:26:16.953Z,20.02
2023-08-07T07:28:44.550Z,19.98
2023-08-07T07:31:12.961Z,19.90
2023-08-07T07:33:42.565Z,19.84
2023-08-07T07:36:17.684Z,19.79
2023-08-07T07:38:48.455Z,19.73
2023-08-07T07:41:17.132Z,19.78
2023-08-07T07:43:45.044Z,19.84
2023-08-07T07:46:12.668Z,19.91
2023-08-07T07:48:40.275Z,20.02
2023-08-07T07:51:08.099Z,20.06
2023-08-07T07:53:35.857Z,20.09
2023-08-07T07:56:03.587Z,20.16
2023-08-07T07:58:31.480Z,20.14
2023-08-07T08:00:59.066Z,20.13
2023-08-07T08:03:27.117Z,20.43
2023-08-07T08:05:54.850Z,20.56
2023-08-07T08:08:22.509Z,20.82
2023-08-07T08:10:52.295Z,20.82
2023-08-07T08:13:20.146Z,20.78
2023-08-07T08:15:47.802Z,21.16
2023-08-07T08:18:15.849Z,21.54
2023-08-07T08:20:43.503Z,21.81
2023-08-07T08:23:11.104Z,22.12
2023-08-07T08:25:38.954Z,22.39
2023-08-07T08:28:06.557Z,22.37
2023-08-07T08:30:34.163Z,22.83
2023-08-07T08:33:02.257Z,23.27
2023-08-07T08:35:30.017Z,23.24
2023-08-07T08:37:57.629Z,23.19
2023-08-07T08:40:25.781Z,23.41
2023-08-07T08:42:59.126Z,23.16
2023-08-07T08:45:28.451Z,23.16
2023-08-07T08:48:05.810Z,23.03
2023-08-07T08:50:34.927Z,22.92
2023-08-07T08:53:04.131Z,22.88
2023-08-07T08:55:31.984Z,22.89
2023-08-07T08:58:01.994Z,22.88
2023-08-07T09:00:31.620Z,22.98
2023-08-07T09:03:00.211Z,23.28
2023-08-07T09:05:28.830Z,23.63
2023-08-07T09:07:57.427Z,23.75
2023-08-07T09:10:26.053Z,23.86
2023-08-07T09:13:06.481Z,24.05
2023-08-07T09:15:34.664Z,24.27
2023-08-07T09:18:06.327Z,24.38
2023-08-07T09:20:35.406Z,24.53
2023-08-07T09:23:03.273Z,24.47
2023-08-07T09:25:34.837Z,24.41
2023-08-07T09:28:06.729Z,24.50
2023-08-07T09:30:37.142Z,24.54
2023-08-07T09:33:05.465Z,24.50
2023-08-07T09:35:34.406Z,24.72
2023-08-07T09:38:02.709Z,24.85
2023-08-07T09:40:32.146Z,24.78
2023-08-07T09:43:02.465Z,25.09
2023-08-07T09:45:32.698Z,25.40
2023-08-07T09:48:07.502Z,25.39
2023-08-07T09:50:35.733Z,25.39
2023-08-07T09:53:03.490Z,25.18
2023-08-07T09:55:32.407Z,25.29
2023-08-07T09:58:03.318Z,25.44
2023-08-07T10:00:36.187Z,25.41
2023-08-07T10:03:06.145Z,25.15
2023-08-07T10:05:34.052Z,24.97
2023-08-07T10:08:02.320Z,24.92
2023-08-07T10:10:30.882Z,24.88
2023-08-07T10:13:04.080Z,25.00
2023-08-07T10:15:38.206Z,25.10
2023-08-07T10:18:06.148Z,25.26
2023-08-07T10:20:34.536Z,25.35
2023-08-07T10:23:08.796Z,25.15
2023-08-07T10:25:43.252Z,24.81
2023-08-07T10:28:13.694Z,24.78
2023-08-07T10:30:43.088Z,24.71
2023-08-07T10:33:13.044Z,24.68
2023-08-07T10:35:49.934Z,24.75
2023-08-07T10:38:24.736Z,24.60
2023-08-07T10:41:10.179Z,24.38
2023-08-07T10:43:41.645Z,24.28
2023-08-07T10:46:16.427Z,24.21
2023-08-07T10:48:48.278Z,24.11
2023-08-07T10:51:19.317Z,23.92
2023-08-07T10:53:52.578Z,23.92
2023-08-07T10:56:32.098Z,23.79
2023-08-07T10:58:59.749Z,23.74
2023-08-07T11:01:30.546Z,23.57
2023-08-07T11:04:01.503Z,23.43
2023-08-07T11:06:34.595Z,23.46
2023-08-07T11:09:06.288Z,23.46
2023-08-07T11:11:41.787Z,23.33
2023-08-07T11:14:20.582Z,23.30
2023-08-07T11:16:49.583Z,23.10
2023-08-07T11:19:19.092Z,23.17
2023-08-07T11:21:46.725Z,23.12
2023-08-07T11:24:15.335Z,23.15
2023-08-07T11:26:46.100Z,23.21
2023-08-07T11:29:18.854Z,22.94
2023-08-07T11:31:47.074Z,22.93
2023-08-07T11:34:14.958Z,22.66
2023-08-07T11:36:44.030Z,22.40
2023-08-07T11:39:12.702Z,22.08
2023-08-07T11:41:41.555Z,21.69
2023-08-07T11:44:09.565Z,21.25
2023-08-07T11:46:37.469Z,21.24
2023-08-07T11:49:05.844Z,20.73
2023-08-07T11:51:34.049Z,20.37
2023-08-07T11:54:02.336Z,20.25
2023-08-07T11:56:30.520Z,20.05
2023-08-07T11:58:59.187Z,19.93
2023-08-07T12:01:29.062Z,19.84
2023-08-07T12:04:18.723Z,19.72
2023-08-07T12:06:57.847Z,19.47
2023-08-07T12:09:29.966Z,19.02
2023-08-07T12:12:00.773Z,18.94
2023-08-07T12:14:32.455Z,18.77
2023-08-07T12:17:03.062Z,18.79
2023-08-07T12:19:41.711Z,18.77
2023-08-07T12:22:11.975Z,18.85
2023-08-07T12:24:41.642Z,18.85
2023-08-07T12:27:09.189Z,18.84
2023-08-07T12:29:36.763Z,18.86
2023-08-07T12:32:04.934Z,18.89
2023-08-07T12:35:14.651Z,18.92
2023-08-07T12:37:21.557Z,18.92
2023-08-07T12:44:50.242Z,19.01
2023-08-07T12:47:17.857Z,19.14
2023-08-07T12:49:47.341Z,19.20
2023-08-07T12:52:15.282Z,19.45
2023-08-07T12:54:42.833Z,19.76
2023-08-07T12:57:10.349Z,19.91
2023-08-07T12:59:38.230Z,20.12
2023-08-07T13:02:05.896Z,20.37
2023-08-07T13:04:34.978Z,20.75
2023-08-07T13:07:02.902Z,20.99
2023-08-07T13:09:32.129Z,21.16
2023-08-07T13:11:59.650Z,21.39
2023-08-07T13:14:27.557Z,21.65
2023-08-07T13:16:55.582Z,21.50
2023-08-07T13:19:23.537Z,21.55
2023-08-07T13:21:53.554Z,21.57
2023-08-07T13:24:21.113Z,21.77
2023-08-07T13:26:49.390Z,21.82
2023-08-07T13:29:17.315Z,22.25
2023-08-07T13:31:47.503Z,22.36
2023-08-07T13:34:15.655Z,22.68
2023-08-07T13:36:43.484Z,22.98
2023-08-07T13:39:12.537Z,23.04
2023-08-07T13:41:40.161Z,23.17
2023-08-07T13:44:08.025Z,23.28
2023-08-07T13:46:35.661Z,23.34
2023-08-07T13:49:03.417Z,23.51
2023-08-07T13:51:31.250Z,23.60
2023-08-07T13:53:58.813Z,23.56
2023-08-07T13:56:26.676Z,23.68
2023-08-07T13:58:56.019Z,23.76
2023-08-07T14:01:23.604Z,23.78
2023-08-07T14:03:51.461Z,23.82
2023-08-07T14:06:19.047Z,23.80
2023-08-07T14:08:47.035Z,23.79
2023-08-07T14:11:16.065Z,23.82
2023-08-07T14:13:45.096Z,23.85
2023-08-07T14:16:12.725Z,23.76
2023-08-07T14:18:40.742Z,23.66
2023-08-07T14:21:08.316Z,23.64
2023-08-07T14:23:35.951Z,23.74
2023-08-07T14:26:03.908Z,23.73
2023-08-07T14:28:31.563Z,23.76
2023-08-07T14:31:01.050Z,23.89
2023-08-07T14:33:29.882Z,23.84
2023-08-07T14:35:57.404Z,23.86
2023-08-07T14:38:24.929Z,23.78
2023-08-07T14:40:52.785Z,23.70
2023-08-07T14:43:20.410Z,23.74
2023-08-07T14:45:48.020Z,23.68
2023-08-07T14:48:16.560Z,23.52
2023-08-07T14:50:44.166Z,23.48
2023-08-07T14:53:11.739Z,23.44
2023-08-07T14:55:39.680Z,23.37
2023-08-07T14:58:07.213Z,23.34
2023-08-07T15:00:36.719Z,23.34
2023-08-07T15:03:04.790Z,23.18
2023-08-07T15:05:32.497Z,23.13
2023-08-07T15:08:01.814Z,23.05
2023-08-07T15:10:30.334Z,22.81
2023-08-07T15:12:58.203Z,22.70
2023-08-07T15:15:25.856Z,22.76
2023-08-07T15:17:53.897Z,22.83
2023-08-07T15:20:21.761Z,22.77
2023-08-07T15:22:49.416Z,22.75
2023-08-07T15:25:18.376Z,22.77
2023-08-07T15:27:45.902Z,22.55
2023-08-07T15:30:13.686Z,22.08
2023-08-07T15:32:42.252Z,21.82
2023-08-07T15:35:10.254Z,21.67
2023-08-07T15:37:37.866Z,21.73
2023-08-07T15:40:06.232Z,21.70
2023-08-07T15:42:33.752Z,21.78
2023-08-07T15:45:01.278Z,21.70
2023-08-07T15:47:29.159Z,21.84
2023-08-07T15:49:56.762Z,21.95
2023-08-07T15:52:24.318Z,22.01
2023-08-07T15:54:52.150Z,21.86
2023-08-07T15:57:19.710Z,21.98
2023-08-07T15:59:47.341Z,21.89
2023-08-07T16:02:15.261Z,21.79
2023-08-07T16:04:43.249Z,21.80
2023-08-07T16:07:10.917Z,21.81
2023-08-07T16:09:38.470Z,21.80
2023-08-07T16:12:06.585Z,21.65
2023-08-07T16:14:36.273Z,21.59
2023-08-07T16:17:05.871Z,21.44
2023-08-07T16:19:33.592Z,21.40
2023-08-07T16:22:01.246Z,21.32
2023-08-07T16:24:29.068Z,21.34
2023-08-07T16:26:56.881Z,21.26
2023-08-07T16:29:24.694Z,21.23
2023-08-07T16:31:53.487Z,21.24
2023-08-07T16:34:21.431Z,21.22
2023-08-07T16:36:49.043Z,21.10
2023-08-07T16:39:16.893Z,21.05
2023-08-07T16:41:46.803Z,21.06
2023-08-07T16:44:14.471Z,20.99
2023-08-07T16:46:42.369Z,20.98
2023-08-07T16:49:09.901Z,20.99
2023-08-07T16:51:37.402Z,21.01
2023-08-07T16:54:05.297Z,21.06
2023-08-07T16:56:32.840Z,20.97
2023-08-07T16:59:00.465Z,20.94
2023-08-07T17:01:28.312Z,20.83
2023-08-07T17:03:55.842Z,20.83
2023-08-07T17:06:23.416Z,20.79
2023-08-07T17:08:53.400Z,20.77
2023-08-07T17:11:21.345Z,20.75
2023-08-07T17:13:48.944Z,20.55
2023-08-07T17:16:16.888Z,20.56
2023-08-07T17:18:44.488Z,20.48
2023-08-07T17:21:12.039Z,20.43
2023-08-07T17:23:40.007Z,20.39
2023-08-07T17:26:08.071Z,20.35
2023-08-07T17:28:36.678Z,20.44
2023-08-07T17:31:04.743Z,20.34
2023-08-07T17:33:34.519Z,20.40
2023-08-07T17:36:02.156Z,20.26
2023-08-07T17:38:30.131Z,20.17
2023-08-07T17:40:57.661Z,20.21
2023-08-07T17:43:25.216Z,20.22
2023-08-07T17:45:53.468Z,20.29
2023-08-07T17:48:21.104Z,20.37
2023-08-07T17:50:49.586Z,20.40
2023-08-07T17:53:17.618Z,20.43
2023-08-07T17:55:45.250Z,20.37
2023-08-07T17:58:12.879Z,20.30
2023-08-07T18:00:41.132Z,20.31
2023-08-07T18:03:09.088Z,20.17
2023-08-07T18:05:36.819Z,19.92
2023-08-07T18:08:04.839Z,19.70
2023-08-07T18:10:32.948Z,19.50
2023-08-07T18:13:00.629Z,19.36
2023-08-07T18:15:28.262Z,19.24
2023-08-07T18:17:56.536Z,19.26
2023-08-07T18:20:24.222Z,19.35
2023-08-07T18:22:51.854Z,19.49
2023-08-07T18:25:19.745Z,19.59
2023-08-07T18:27:47.366Z,19.68
2023-08-07T18:30:14.933Z,19.41
2023-08-07T18:32:42.934Z,19.26
2023-08-07T18:35:10.517Z,19.05
2023-08-07T18:37:38.160Z,18.97
2023-08-07T18:40:06.943Z,18.91
2023-08-07T18:42:34.621Z,18.84
2023-08-07T18:45:02.243Z,18.71
2023-08-07T18:47:30.063Z,18.51
2023-08-07T18:49:57.629Z,18.19
2023-08-07T18:52:25.188Z,17.95
2023-08-07T18:54:53.373Z,17.78
2023-08-07T18:57:20.928Z,17.56
2023-08-07T18:59:48.451Z,17.55
2023-08-07T19:02:16.576Z,17.27
2023-08-07T19:04:44.134Z,17.03
2023-08-07T19:07:12.132Z,17.01
2023-08-07T19:09:40.032Z,16.75
2023-08-07T19:12:08.158Z,16.68
2023-08-07T19:14:35.750Z,16.57
2023-08-07T19:17:07.227Z,16.49
2023-08-07T19:19:36.302Z,16.48
2023-08-07T19:22:04.913Z,16.42
2023-08-07T19:24:32.566Z,16.29
2023-08-07T19:27:00.730Z,16.27
2023-08-07T19:29:29.008Z,16.21
2023-08-07T19:31:56.651Z,16.15
2023-08-07T19:34:25.744Z,16.05
2023-08-07T19:36:53.575Z,16.00
2023-08-07T19:39:23.783Z,15.92
2023-08-07T19:41:51.838Z,15.99
2023-08-07T19:44:19.767Z,16.15
2023-08-07T19:46:47.335Z,16.07
2023-08-07T19:49:14.835Z,16.11
2023-08-07T19:51:42.872Z,16.06
2023-08-07T19:54:10.540Z,15.92
2023-08-07T19:56:38.101Z,15.78
2023-08-07T19:59:06.334Z,15.72
2023-08-07T20:01:34.183Z,15.80
2023-08-07T20:04:02.234Z,15.71
2023-08-07T20:06:36.595Z,15.72
2023-08-07T20:09:04.601Z,15.53
2023-08-07T20:11:37.475Z,15.54
2023-08-07T20:14:05.546Z,15.54
2023-08-07T20:16:33.417Z,15.44
2023-08-07T20:19:01.330Z,15.32
2023-08-07T20:21:29.558Z,15.21
2023-08-07T20:23:57.828Z,15.09
2023-08-07T20:26:25.499Z,15.03
2023-08-07T20:28:53.555Z,15.00
2023-08-07T20:31:21.125Z,15.08
2023-08-07T20:33:48.730Z,15.14
2023-08-07T20:36:16.998Z,15.18
2023-08-07T20:38:44.636Z,15.23
2023-08-07T20:41:12.161Z,15.35
2023-08-07T20:43:40.058Z,15.39
2023-08-07T20:46:07.990Z,15.45
2023-08-07T20:48:35.650Z,15.47
2023-08-07T20:51:03.518Z,15.51
2023-08-07T20:53:31.362Z,15.48
2023-08-07T20:55:58.968Z,15.54
2023-08-07T20:58:26.935Z,15.52
2023-08-07T21:00:57.266Z,15.47
2023-08-07T21:03:24.942Z,15.54
2023-08-07T21:05:52.846Z,15.59
2023-08-07T21:08:20.414Z,15.66
2023-08-07T21:10:48.166Z,15.65
2023-08-07T21:13:16.104Z,15.71
2023-08-07T21:15:43.838Z,15.80
2023-08-07T21:18:11.465Z,15.88
2023-08-07T21:20:39.435Z,15.90
2023-08-07T21:23:09.810Z,15.90
2023-08-07T21:25:37.369Z,15.99
2023-08-07T21:28:05.706Z,16.06
2023-08-07T21:30:33.358Z,16.10
2023-08-07T21:33:01.064Z,16.16
2023-08-07T21:35:29.129Z,16.16
2023-08-07T21:37:56.673Z,16.17
2023-08-07T21:40:25.015Z,16.13
2023-08-07T21:42:52.975Z,16.19
2023-08-07T21:45:20.516Z,16.17
2023-08-07T21:47:48.096Z,16.16
2023-08-07T21:50:15.945Z,16.15
2023-08-07T21:52:43.460Z,16.15
2023-08-07T21:55:11.092Z,16.14
2023-08-07T21:57:38.995Z,16.07
2023-08-07T22:00:07.560Z,15.99
2023-08-07T22:02:40.205Z,15.98
2023-08-07T22:05:08.911Z,15.89
2023-08-07T22:07:37.962Z,15.83
2023-08-07T22:10:10.050Z,15.72
2023-08-07T22:12:38.025Z,15.69
2023-08-07T22:15:06.145Z,15.65
2023-08-07T22:17:33.733Z,15.63
2023-08-07T22:20:05.351Z,15.67
2023-08-07T22:22:33.441Z,15.69
2023-08-07T22:25:01.401Z,15.71
2023-08-07T22:27:28.959Z,15.74
2023-08-07T22:29:56.560Z,15.75
2023-08-07T22:32:24.481Z,15.78
2023-08-07T22:34:52.034Z,15.83
2023-08-07T22:37:19.648Z,15.82
2023-08-07T22:39:48.098Z,15.82
2023-08-07T22:42:15.705Z,15.77
2023-08-07T22:44:43.251Z,15.80
2023-08-07T22:47:11.113Z,15.80
2023-08-07T22:49:38.738Z,15.82
2023-08-07T22:52:06.623Z,15.76
2023-08-07T22:54:34.483Z,15.76
2023-08-07T22:57:02.072Z,15.75
2023-08-07T22:59:29.665Z,15.73
2023-08-07T23:01:57.887Z,15.73
2023-08-07T23:04:25.792Z,15.69
2023-08-07T23:06:53.337Z,15.73
2023-08-07T23:09:21.237Z,15.67
2023-08-07T23:11:48.768Z,15.67
2023-08-07T23:14:16.341Z,15.69
2023-08-07T23:16:45.655Z,15.71
2023-08-07T23:19:13.363Z,15.66
2023-08-07T23:21:40.874Z,15.70
2023-08-07T23:24:08.872Z,15.70
2023-08-07T23:26:36.432Z,15.65
2023-08-07T23:29:03.985Z,15.69
2023-08-07T23:31:32.052Z,15.62
2023-08-07T23:33:59.652Z,15.65
2023-08-07T23:36:27.237Z,15.64
2023-08-07T23:38:55.072Z,15.65
2023-08-07T23:41:22.703Z,15.62
2023-08-07T23:43:50.237Z,15.53
2023-08-07T23:46:18.121Z,15.50
2023-08-07T23:48:45.729Z,15.50
2023-08-07T23:51:13.267Z,15.49
2023-08-07T23:53:41.078Z,15.47
2023-08-07T23:56:09.035Z,15.40
2023-08-07T23:58:36.752Z,15.38
